createdAt,value
2023-05-19T00:03:52.540Z,65.20
2023-05-19T00:09:02.321Z,65.50
2023-05-19T00:14:11.649Z,65.73
2023-05-19T00:19:18.909Z,65.81
2023-05-19T00:24:26.019Z,66.17
2023-05-19T00:29:32.936Z,66.26
2023-05-19T00:34:39.795Z,66.48
2023-05-19T00:39:47.823Z,66.66
2023-05-19T00:44:55.145Z,66.90
2023-05-19T00:50:02.196Z,67.10
2023-05-19T00:55:11.638Z,67.39
2023-05-19T01:00:19.444Z,67.66
2023-05-19T01:05:27.848Z,67.85
2023-05-19T01:10:34.783Z,68.01
2023-05-19T01:15:56.540Z,68.37
2023-05-19T01:21:23.738Z,68.43
2023-05-19T01:26:57.551Z,68.48
2023-05-19T01:32:07.789Z,68.75
2023-05-19T01:37:18.756Z,68.86
2023-05-19T01:42:26.273Z,68.94
2023-05-19T01:47:34.571Z,69.04
2023-05-19T01:52:41.500Z,69.17
2023-05-19T01:58:01.003Z,69.23
2023-05-19T02:03:21.810Z,69.32
2023-05-19T02:08:35.604Z,69.44
2023-05-19T02:13:45.781Z,69.62
2023-05-19T02:18:54.015Z,69.76
2023-05-19T02:24:00.960Z,69.94
2023-05-19T02:29:10.129Z,70.04
2023-05-19T02:34:17.080Z,70.24
2023-05-19T02:39:23.990Z,70.57
2023-05-19T02:44:31.061Z,70.81
2023-05-19T02:49:38.482Z,71.37
2023-05-19T02:54:45.925Z,71.62
2023-05-19T02:59:52.839Z,71.74
2023-05-19T03:05:01.624Z,71.92
2023-05-19T03:10:10.569Z,72.02
2023-05-19T03:15:18.872Z,72.19
2023-05-19T03:20:25.874Z,72.15
2023-05-19T03:25:32.953Z,72.16
2023-05-19T03:30:40.113Z,72.16
2023-05-19T03:35:53.137Z,72.16
2023-05-19T03:41:00.472Z,72.25
2023-05-19T03:46:10.363Z,72.33
2023-05-19T03:51:28.783Z,72.49
2023-05-19T03:56:42.119Z,72.76
2023-05-19T04:01:49.136Z,72.86
2023-05-19T04:06:56.578Z,72.83
2023-05-19T04:12:03.821Z,72.78
2023-05-19T04:17:11.090Z,72.86
2023-05-19T04:22:18.200Z,72.96
2023-05-19T04:27:26.234Z,72.60
2023-05-19T04:32:34.840Z,72.50
2023-05-19T04:37:42.098Z,72.60
2023-05-19T04:42:50.134Z,72.29
2023-05-19T04:47:58.711Z,72.27
2023-05-19T04:53:05.913Z,71.98
2023-05-19T04:58:13.330Z,71.95
2023-05-19T05:03:23.067Z,72.14
2023-05-19T05:08:31.320Z,72.17
2023-05-19T05:13:40.290Z,71.89
2023-05-19T05:18:48.206Z,71.62
2023-05-19T05:23:56.902Z,71.46
2023-05-19T05:29:05.548Z,71.37
2023-05-19T05:34:12.841Z,71.30
2023-05-19T05:39:19.980Z,71.10
2023-05-19T05:44:27.670Z,71.21
2023-05-19T05:49:38.307Z,71.02
2023-05-19T05:54:46.964Z,70.85
2023-05-19T05:59:55.674Z,70.24
2023-05-19T06:05:02.814Z,70.00
2023-05-19T06:10:11.758Z,69.65
2023-05-19T06:15:18.766Z,69.84
2023-05-19T06:20:46.159Z,68.95
2023-05-19T06:25:53.467Z,68.67
2023-05-19T06:31:00.732Z,68.61
2023-05-19T06:36:19.389Z,68.27
2023-05-19T06:41:27.165Z,68.09
2023-05-19T06:46:34.402Z,68.32
2023-05-19T06:51:41.521Z,68.04
2023-05-19T06:56:48.661Z,67.87
2023-05-19T07:01:55.675Z,67.73
2023-05-19T07:07:03.133Z,67.77
2023-05-19T07:12:10.955Z,67.75
2023-05-19T07:17:18.528Z,67.49
2023-05-19T07:22:25.810Z,67.42
2023-05-19T07:27:32.912Z,67.65
2023-05-19T07:32:39.945Z,67.36
2023-05-19T07:37:47.072Z,67.33
2023-05-19T07:42:54.078Z,66.64
2023-05-19T07:48:01.613Z,66.37
2023-05-19T07:53:08.637Z,66.15
2023-05-19T07:58:15.720Z,66.19
2023-05-19T08:03:24.017Z,66.24
2023-05-19T08:08:33.486Z,66.57
2023-05-19T08:13:40.510Z,66.56
2023-05-19T08:18:47.618Z,66.55
2023-05-19T08:23:54.654Z,66.46
2023-05-19T08:29:01.561Z,66.43
2023-05-19T08:34:08.551Z,66.05
2023-05-19T08:39:16.706Z,65.65
2023-05-19T08:44:23.876Z,65.30
2023-05-19T08:49:37.055Z,65.05
2023-05-19T08:54:52.067Z,64.92
2023-05-19T08:59:59.849Z,64.43
2023-05-19T09:05:08.499Z,64.09
2023-05-19T09:10:16.554Z,63.64
2023-05-19T09:15:27.342Z,63.67
2023-05-19T09:20:33.193Z,63.40
2023-05-19T09:25:47.744Z,63.34
2023-05-19T09:31:01.893Z,63.13
2023-05-19T09:36:11.021Z,63.46
2023-05-19T09:41:18.150Z,63.29
2023-05-19T09:46:28.553Z,63.26
2023-05-19T09:51:36.051Z,63.20
2023-05-19T09:56:43.340Z,63.33
2023-05-19T10:01:51.239Z,62.16
2023-05-19T10:07:00.555Z,61.07
2023-05-19T10:12:09.334Z,61.02
2023-05-19T10:17:17.248Z,60.36
2023-05-19T10:22:24.232Z,61.06
2023-05-19T10:27:33.594Z,61.42
2023-05-19T10:32:43.975Z,59.92
2023-05-19T10:37:59.069Z,59.72
2023-05-19T10:43:23.196Z,59.33
2023-05-19T10:48:36.619Z,59.54
2023-05-19T10:53:47.007Z,60.39
2023-05-19T10:58:53.985Z,60.26
2023-05-19T11:04:05.817Z,60.08
2023-05-19T11:09:16.917Z,60.21
2023-05-19T11:14:25.273Z,60.38
2023-05-19T11:19:35.844Z,60.63
2023-05-19T11:24:47.936Z,60.82
2023-05-19T11:29:56.372Z,61.26
2023-05-19T11:35:04.129Z,61.44
2023-05-19T11:40:12.684Z,61.62
2023-05-19T11:45:25.216Z,61.67
2023-05-19T11:50:33.661Z,61.96
2023-05-19T11:55:46.552Z,61.71
2023-05-19T12:00:54.237Z,61.82
2023-05-19T12:06:01.326Z,62.05
2023-05-19T12:11:09.180Z,62.23
2023-05-19T12:16:16.364Z,62.46
2023-05-19T12:21:23.430Z,62.50
2023-05-19T12:26:41.648Z,62.55
2023-05-19T12:31:51.259Z,62.57
2023-05-19T12:36:58.345Z,63.06
2023-05-19T12:42:09.039Z,63.54
2023-05-19T12:47:16.496Z,62.40
2023-05-19T12:52:24.062Z,62.53
2023-05-19T12:57:32.588Z,62.54
2023-05-19T13:02:58.061Z,62.05
2023-05-19T13:08:08.252Z,61.80
2023-05-19T13:13:15.399Z,61.72
2023-05-19T13:18:22.296Z,61.69
2023-05-19T13:23:29.574Z,61.81
2023-05-19T13:28:36.767Z,62.00
2023-05-19T13:33:46.323Z,62.14
2023-05-19T13:38:53.516Z,62.36
2023-05-19T13:44:02.141Z,62.83
2023-05-19T13:49:09.622Z,62.66
2023-05-19T13:54:16.682Z,62.79
2023-05-19T13:59:23.623Z,62.91
2023-05-19T14:04:30.700Z,63.01
2023-05-19T14:09:37.924Z,63.14
2023-05-19T14:14:44.982Z,63.19
2023-05-19T14:19:52.017Z,63.21
2023-05-19T14:25:00.514Z,63.42
2023-05-19T14:30:09.064Z,63.37
2023-05-19T14:35:16.224Z,63.40
2023-05-19T14:40:23.427Z,63.34
2023-05-19T14:45:30.998Z,63.37
2023-05-19T14:50:38.037Z,63.10
2023-05-19T14:55:45.303Z,63.16
2023-05-19T15:00:52.256Z,62.73
2023-05-19T15:05:59.199Z,62.77
2023-05-19T15:11:06.265Z,62.70
2023-05-19T15:16:17.035Z,62.61
2023-05-19T15:21:25.576Z,62.65
2023-05-19T15:26:32.523Z,62.48
2023-05-19T15:31:39.739Z,62.45
2023-05-19T15:36:46.751Z,62.42
2023-05-19T15:41:53.970Z,62.60
2023-05-19T15:47:01.042Z,62.22
2023-05-19T15:52:08.703Z,62.22
2023-05-19T15:57:15.628Z,62.18
2023-05-19T16:02:22.705Z,62.20
2023-05-19T16:07:29.759Z,62.56
2023-05-19T16:12:37.339Z,62.67
2023-05-19T16:17:44.391Z,62.81
2023-05-19T16:22:51.204Z,63.02
2023-05-19T16:27:58.622Z,63.35
2023-05-19T16:33:05.506Z,63.51
2023-05-19T16:38:12.454Z,63.66
2023-05-19T16:43:19.594Z,63.90
2023-05-19T16:48:26.749Z,64.07
2023-05-19T16:53:33.683Z,64.19
2023-05-19T16:58:40.632Z,64.24
2023-05-19T17:03:47.598Z,64.43
2023-05-19T17:08:55.977Z,64.58
2023-05-19T17:14:07.590Z,64.76
2023-05-19T17:19:14.674Z,64.96
2023-05-19T17:24:21.865Z,65.04
2023-05-19T17:29:29.016Z,65.05
2023-05-19T17:34:35.941Z,65.25
2023-05-19T17:39:42.969Z,65.38
2023-05-19T17:44:49.999Z,65.37
2023-05-19T17:49:58.000Z,65.53
2023-05-19T17:55:06.405Z,65.73
2023-05-19T18:00:15.452Z,65.81
2023-05-19T18:05:23.993Z,66.02
2023-05-19T18:10:32.897Z,66.30
2023-05-19T18:15:40.247Z,66.34
2023-05-19T18:20:47.681Z,66.62
2023-05-19T18:25:54.648Z,66.83
2023-05-19T18:31:05.982Z,67.02
2023-05-19T18:36:13.549Z,67.12
2023-05-19T18:41:21.501Z,67.48
2023-05-19T18:46:28.533Z,67.75
2023-05-19T18:51:36.180Z,67.81
2023-05-19T18:56:43.140Z,68.09
2023-05-19T19:01:50.067Z,68.29
2023-05-19T19:06:57.016Z,68.46
2023-05-19T19:12:04.062Z,68.63
2023-05-19T19:17:11.230Z,68.81
2023-05-19T19:22:18.315Z,69.05
2023-05-19T19:27:31.010Z,69.33
2023-05-19T19:32:38.144Z,69.48
2023-05-19T19:37:47.071Z,69.55
2023-05-19T19:42:54.655Z,69.62
2023-05-19T19:48:02.168Z,69.98
2023-05-19T19:53:09.437Z,70.01
2023-05-19T19:58:16.394Z,70.08
2023-05-19T20:03:23.382Z,70.26
2023-05-19T20:08:30.341Z,70.43
2023-05-19T20:13:37.442Z,70.55
2023-05-19T20:18:44.363Z,70.76
2023-05-19T20:23:51.490Z,70.89
2023-05-19T20:28:59.053Z,70.95
2023-05-19T20:34:06.054Z,71.08
2023-05-19T20:39:13.025Z,71.19
2023-05-19T20:44:19.942Z,71.27
2023-05-19T20:49:27.070Z,71.25
2023-05-19T20:54:33.928Z,71.41
2023-05-19T20:59:40.971Z,71.58
2023-05-19T21:04:48.963Z,71.83
2023-05-19T21:09:56.702Z,72.01
2023-05-19T21:15:06.048Z,72.09
2023-05-19T21:20:15.586Z,72.09
2023-05-19T21:25:22.620Z,72.32
2023-05-19T21:30:29.446Z,72.40
2023-05-19T21:35:36.854Z,72.60
2023-05-19T21:40:43.736Z,72.65
2023-05-19T21:45:50.738Z,72.94
2023-05-19T21:50:58.006Z,73.03
2023-05-19T21:56:05.012Z,73.00
2023-05-19T22:01:11.893Z,72.94
2023-05-19T22:06:19.018Z,73.22
2023-05-19T22:11:26.075Z,73.37
2023-05-19T22:16:33.055Z,73.37
2023-05-19T22:21:40.154Z,73.72
2023-05-19T22:26:47.432Z,73.59
2023-05-19T22:31:54.372Z,73.59
2023-05-19T22:37:01.873Z,73.88
2023-05-19T22:42:09.086Z,73.95
2023-05-19T22:47:15.989Z,74.04
2023-05-19T22:52:23.100Z,74.07
2023-05-19T22:57:29.995Z,74.16
2023-05-19T23:02:37.105Z,74.28
2023-05-19T23:07:44.185Z,74.39
2023-05-19T23:12:51.619Z,74.55
2023-05-19T23:17:58.884Z,74.46
2023-05-19T23:23:05.871Z,74.53
2023-05-19T23:28:12.826Z,74.63
2023-05-19T23:33:19.677Z,74.60
2023-05-19T23:38:27.819Z,74.73
2023-05-19T23:43:34.744Z,74.96
2023-05-19T23:48:41.688Z,75.00
2023-05-19T23:53:49.008Z,74.96
2023-05-19T23:58:56.048Z,75.02
